createdAt,value
2022-10-09T00:02:59.618Z,982.66
2022-10-09T00:08:31.289Z,982.48
2022-10-09T00:14:03.063Z,982.32
2022-10-09T00:19:34.807Z,982.4
2022-10-09T00:25:06.450Z,982.44
2022-10-09T00:30:42.908Z,982.35
2022-10-09T00:36:14.409Z,982.17
2022-10-09T00:41:46.218Z,982.16
2022-10-09T00:47:17.805Z,982.03
2022-10-09T00:52:50.471Z,982.09
2022-10-09T00:58:21.233Z,981.98
2022-10-09T01:03:53.123Z,981.72
2022-10-09T01:09:26.970Z,982.03
2022-10-09T01:14:56.470Z,981.95
2022-10-09T01:20:28.014Z,981.99
2022-10-09T01:26:00.006Z,981.92
2022-10-09T01:31:38.009Z,981.81
2022-10-09T01:37:09.660Z,981.6
2022-10-09T01:42:41.380Z,981.48
2022-10-09T01:48:13.097Z,981.27
2022-10-09T01:53:44.821Z,981.47
2022-10-09T01:59:16.962Z,981.02
2022-10-09T02:04:48.214Z,981.08
2022-10-09T02:10:20.181Z,980.93
2022-10-09T02:15:52.140Z,980.91
2022-10-09T02:21:23.509Z,980.81
2022-10-09T02:26:55.189Z,981.28
2022-10-09T02:32:31.298Z,981.37
2022-10-09T02:38:03.071Z,981.35
2022-10-09T02:43:34.807Z,981.32
2022-10-09T02:49:06.457Z,981.54
2022-10-09T02:54:38.254Z,981.58
2022-10-09T03:00:09.954Z,981.72
2022-10-09T03:05:41.630Z,981.79
2022-10-09T03:11:13.375Z,981.93
2022-10-09T03:16:45.099Z,981.78
2022-10-09T03:22:16.738Z,981.59
2022-10-09T03:27:48.458Z,981.52
2022-10-09T03:33:24.588Z,981.57
2022-10-09T03:38:56.393Z,981.71
2022-10-09T03:44:28.049Z,981.74
2022-10-09T03:49:59.787Z,981.74
2022-10-09T03:55:31.591Z,981.73
2022-10-09T04:01:03.513Z,981.7
2022-10-09T04:06:35.052Z,981.38
2022-10-09T04:12:06.727Z,981.57
2022-10-09T04:17:38.444Z,981.6
2022-10-09T04:23:10.283Z,981.18
2022-10-09T04:28:42.096Z,980.8
2022-10-09T04:34:18.003Z,980.87
2022-10-09T04:39:49.759Z,980.62
2022-10-09T04:45:21.514Z,980.51
2022-10-09T04:50:53.246Z,980.25
2022-10-09T04:56:24.873Z,980.44
2022-10-09T05:01:56.771Z,980.66
2022-10-09T05:07:28.381Z,980.63
2022-10-09T05:13:00.138Z,980.71
2022-10-09T05:18:31.741Z,980.7
2022-10-09T05:24:10.627Z,980.33
2022-10-09T05:29:35.268Z,980.29
2022-10-09T05:35:11.374Z,980.36
2022-10-09T05:40:42.952Z,980.6
2022-10-09T05:46:14.833Z,980.65
2022-10-09T05:51:46.475Z,980.47
2022-10-09T05:57:18.199Z,980.43
2022-10-09T06:02:51.250Z,980.33
2022-10-09T06:08:21.727Z,980.34
2022-10-09T06:13:53.382Z,980.44
2022-10-09T06:19:25.073Z,980.47
2022-10-09T06:24:56.830Z,980.55
2022-10-09T06:30:28.872Z,981.09
2022-10-09T06:36:11.013Z,981.27
2022-10-09T06:41:38.409Z,981.55
2022-10-09T06:47:10.168Z,982.01
2022-10-09T06:52:41.856Z,982.39
2022-10-09T06:58:13.525Z,982.7
2022-10-09T07:03:45.272Z,983.12
2022-10-09T07:09:16.964Z,983.59
2022-10-09T07:14:48.683Z,984.03
2022-10-09T07:20:20.516Z,984.29
2022-10-09T07:25:52.220Z,985.27
2022-10-09T07:31:24.050Z,985.84
2022-10-09T07:37:00.021Z,986.09
2022-10-09T07:42:31.637Z,986.32
2022-10-09T07:48:03.488Z,986.48
2022-10-09T07:53:36.718Z,986.76
2022-10-09T07:59:07.885Z,986.47
2022-10-09T08:04:40.501Z,987.04
2022-10-09T08:10:12.163Z,986.38
2022-10-09T08:15:44.042Z,986.54
2022-10-09T08:21:15.639Z,986.64
2022-10-09T08:26:48.176Z,986.26
2022-10-09T08:32:20.202Z,986.43
2022-10-09T08:37:56.534Z,986.47
2022-10-09T08:43:28.390Z,986.67
2022-10-09T08:49:00.181Z,986.47
2022-10-09T08:54:31.682Z,986.68
2022-10-09T09:00:03.554Z,986.46
2022-10-09T09:05:35.283Z,985.96
2022-10-09T09:11:06.925Z,986.71
2022-10-09T09:16:39.366Z,986.99
2022-10-09T09:22:11.143Z,986.41
2022-10-09T09:27:42.878Z,986.2
2022-10-09T09:33:14.673Z,986.97
2022-10-09T09:40:35.903Z,986.71
2022-10-09T09:44:24.354Z,986.54
2022-10-09T09:49:56.114Z,986.87
2022-10-09T09:55:27.857Z,986.52
2022-10-09T10:01:00.069Z,986.64
2022-10-09T10:06:31.272Z,986.38
2022-10-09T10:12:03.174Z,986.41
2022-10-09T10:17:34.754Z,985.67
2022-10-09T10:23:06.514Z,986.13
2022-10-09T10:28:38.593Z,985.67
2022-10-09T10:34:09.938Z,985.48
2022-10-09T10:39:46.031Z,985.79
2022-10-09T10:45:17.748Z,985.39
2022-10-09T10:50:49.414Z,985.95
2022-10-09T10:56:21.193Z,985.22
2022-10-09T11:01:52.950Z,985.43
2022-10-09T11:07:24.906Z,985.55
2022-10-09T11:12:56.398Z,985.63
2022-10-09T11:18:28.095Z,985.74
2022-10-09T11:23:59.834Z,984.94
2022-10-09T11:29:31.546Z,985.21
2022-10-09T11:35:03.241Z,984.53
2022-10-09T11:40:41.271Z,984.46
2022-10-09T11:46:13.251Z,984.76
2022-10-09T11:51:44.857Z,984.91
2022-10-09T11:57:16.497Z,984.48
2022-10-09T12:02:48.509Z,984.66
2022-10-09T12:08:20.567Z,984.29
2022-10-09T12:13:51.675Z,984.73
2022-10-09T12:19:23.333Z,983.54
2022-10-09T12:24:56.009Z,983.45
2022-10-09T12:30:28.097Z,982.79
2022-10-09T12:35:59.510Z,983.37
2022-10-09T12:41:37.691Z,982.27
2022-10-09T12:47:09.318Z,982.42
2022-10-09T12:52:41.046Z,982.36
2022-10-09T12:58:12.744Z,981.67
2022-10-09T13:03:44.471Z,981.28
2022-10-09T13:09:16.193Z,982.06
2022-10-09T13:14:47.842Z,981.85
2022-10-09T13:20:19.727Z,981.2
2022-10-09T13:25:51.381Z,981.56
2022-10-09T13:31:23.101Z,981.22
2022-10-09T13:36:54.866Z,980.84
2022-10-09T13:42:30.816Z,980.91
2022-10-09T13:48:02.647Z,981.19
2022-10-09T13:53:34.382Z,980.31
2022-10-09T13:59:06.045Z,980.26
2022-10-09T14:04:38.184Z,980.12
2022-10-09T14:10:09.703Z,979.33
2022-10-09T14:15:41.321Z,979.49
2022-10-09T14:21:16.263Z,978.95
2022-10-09T14:26:51.993Z,979.19
2022-10-09T14:32:16.452Z,979.28
2022-10-09T14:37:48.397Z,979.01
2022-10-09T14:43:24.292Z,978.6
2022-10-09T14:48:55.967Z,978.52
2022-10-09T14:54:27.613Z,978.66
2022-10-09T14:59:59.350Z,978.33
2022-10-09T15:05:31.306Z,978.26
2022-10-09T15:11:03.189Z,978.64
2022-10-09T15:16:34.582Z,977.89
2022-10-09T15:22:06.444Z,977.68
2022-10-09T15:27:38.130Z,977.24
2022-10-09T15:33:09.830Z,977.28
2022-10-09T15:38:41.568Z,976.86
2022-10-09T15:44:19.665Z,976.57
2022-10-09T15:49:54.061Z,976.5
2022-10-09T15:55:23.286Z,976.33
2022-10-09T16:00:54.786Z,976.52
2022-10-09T16:06:26.742Z,976.14
2022-10-09T16:11:58.217Z,975.78
2022-10-09T16:17:30.065Z,975.57
2022-10-09T16:23:01.873Z,975.47
2022-10-09T16:28:33.521Z,975.2
2022-10-09T16:34:05.398Z,975.46
2022-10-09T16:39:36.845Z,975.3
2022-10-09T16:45:14.964Z,975.25
2022-10-09T16:50:46.754Z,975.41
2022-10-09T16:56:18.646Z,975.61
2022-10-09T17:01:50.197Z,975.61
2022-10-09T17:07:21.951Z,975.7
2022-10-09T17:12:54.183Z,976.02
2022-10-09T17:18:25.917Z,975.7
2022-10-09T17:23:57.643Z,975.66
2022-10-09T17:29:29.458Z,975.6
2022-10-09T17:35:01.085Z,975.46
2022-10-09T17:40:32.934Z,975.38
2022-10-09T17:46:08.875Z,975.7
2022-10-09T17:51:40.671Z,975.88
2022-10-09T17:57:12.425Z,975.68
2022-10-09T18:02:44.105Z,975.51
2022-10-09T18:08:15.809Z,975.7
2022-10-09T18:13:47.665Z,975.84
2022-10-09T18:19:19.293Z,975.33
2022-10-09T18:24:50.942Z,975.37
2022-10-09T18:30:22.835Z,975.04
2022-10-09T18:35:54.378Z,975.15
2022-10-09T18:41:26.140Z,975.55
2022-10-09T18:47:04.298Z,975.2
2022-10-09T18:52:35.900Z,975.41
2022-10-09T18:58:07.636Z,975.15
2022-10-09T19:03:39.410Z,975.41
2022-10-09T19:09:11.170Z,975.06
2022-10-09T19:14:42.958Z,975.13
2022-10-09T19:20:14.641Z,975.3
2022-10-09T19:25:46.374Z,975.38
2022-10-09T19:31:18.133Z,975.19
2022-10-09T19:36:49.915Z,975.58
2022-10-09T19:42:21.586Z,975.52
2022-10-09T19:47:58.452Z,975.33
2022-10-09T19:53:29.358Z,975.13
2022-10-09T19:59:01.075Z,975.13
2022-10-09T20:04:32.739Z,975.25
2022-10-09T20:10:04.669Z,975.52
2022-10-09T20:15:36.219Z,975.73
2022-10-09T20:21:08.163Z,975.8
2022-10-09T20:26:43.803Z,975.26
2022-10-09T20:32:11.466Z,976.26
2022-10-09T20:37:43.158Z,976.33
2022-10-09T20:43:14.979Z,976.08
2022-10-09T20:48:52.971Z,976.34
2022-10-09T20:54:24.795Z,976.05
2022-10-09T20:59:56.386Z,976.38
2022-10-09T21:05:28.206Z,976.16
2022-10-09T21:10:59.900Z,975.83
2022-10-09T21:16:31.578Z,976.01
2022-10-09T21:22:03.593Z,976.13
2022-10-09T21:27:35.077Z,975.82
2022-10-09T21:33:06.757Z,976.07
2022-10-09T21:38:38.488Z,975.97
2022-10-09T21:44:10.230Z,975.8
2022-10-09T21:49:46.424Z,976.1
2022-10-09T21:55:18.203Z,975.98
2022-10-09T22:00:49.838Z,976.0
2022-10-09T22:06:21.464Z,975.71
2022-10-09T22:11:53.222Z,976.06
2022-10-09T22:17:25.083Z,976.24
2022-10-09T22:22:56.635Z,976.26
2022-10-09T22:28:28.519Z,976.34
2022-10-09T22:34:00.136Z,975.9
2022-10-09T22:39:31.939Z,975.74
2022-10-09T22:45:03.579Z,975.96
2022-10-09T22:50:39.809Z,976.11
2022-10-09T22:56:11.433Z,976.45
2022-10-09T23:01:43.236Z,976.46
2022-10-09T23:07:14.866Z,976.31
2022-10-09T23:12:46.771Z,976.48
2022-10-09T23:18:18.353Z,976.6
2022-10-09T23:23:50.091Z,976.57
2022-10-09T23:29:21.751Z,976.73
2022-10-09T23:34:53.530Z,976.58
2022-10-09T23:40:25.217Z,976.71
2022-10-09T23:45:56.953Z,976.9
2022-10-09T23:51:33.181Z,977.03
2022-10-09T23:57:04.825Z,977.08
